createdAt,value
2018-06-11T00:02:16.844Z,18.30
2018-06-11T00:04:45.448Z,18.30
2018-06-11T00:07:13.949Z,18.20
2018-06-11T00:09:42.500Z,18.10
2018-06-11T00:12:10.979Z,18.20
2018-06-11T00:14:39.596Z,18.20
2018-06-11T00:17:08.143Z,18.20
2018-06-11T00:19:36.768Z,18.30
2018-06-11T00:22:05.228Z,18.30
2018-06-11T00:24:33.755Z,18.30
2018-06-11T00:27:02.162Z,18.20
2018-06-11T00:29:30.795Z,18.30
2018-06-11T00:31:59.206Z,18.30
2018-06-11T00:34:27.838Z,18.20
2018-06-11T00:36:56.275Z,18.20
2018-06-11T00:39:24.985Z,18.30
2018-06-11T00:41:53.499Z,18.30
2018-06-11T00:44:22.059Z,18.20
2018-06-11T00:46:50.600Z,18.20
2018-06-11T00:51:47.382Z,18.10
2018-06-11T00:54:15.915Z,18.10
2018-06-11T00:56:44.456Z,18.10
2018-06-11T00:59:13.183Z,18.10
2018-06-11T01:01:42.652Z,18.10
2018-06-11T01:04:11.529Z,18.10
2018-06-11T01:06:40.075Z,18.20
2018-06-11T01:09:08.568Z,18.20
2018-06-11T01:11:37.049Z,18.10
2018-06-11T01:14:05.643Z,18.10
2018-06-11T01:16:34.060Z,18.10
2018-06-11T01:19:02.679Z,18.30
2018-06-11T01:21:31.267Z,18.40
2018-06-11T01:23:59.885Z,18.40
2018-06-11T01:26:28.410Z,18.30
2018-06-11T01:28:56.985Z,18.30
2018-06-11T01:31:25.433Z,18.30
2018-06-11T01:33:54.086Z,18.20
2018-06-11T01:36:22.619Z,18.10
2018-06-11T01:38:51.144Z,18.10
2018-06-11T01:41:19.597Z,18.10
2018-06-11T01:43:48.157Z,18.10
2018-06-11T01:46:16.588Z,18.10
2018-06-11T01:48:45.097Z,18.00
2018-06-11T01:51:13.532Z,17.80
2018-06-11T01:56:11.855Z,17.80
2018-06-11T01:58:40.745Z,17.90
2018-06-11T02:01:09.180Z,17.80
2018-06-11T02:03:37.771Z,17.80
2018-06-11T02:06:06.310Z,17.80
2018-06-11T02:08:34.733Z,17.80
2018-06-11T02:11:03.136Z,17.80
2018-06-11T02:13:31.805Z,17.80
2018-06-11T02:16:00.262Z,17.80
2018-06-11T02:18:28.891Z,17.80
2018-06-11T02:20:57.408Z,17.70
2018-06-11T02:23:26.004Z,17.60
2018-06-11T02:25:54.482Z,17.60
2018-06-11T02:28:23.071Z,17.60
2018-06-11T02:30:51.576Z,17.60
2018-06-11T02:33:20.100Z,17.60
2018-06-11T02:35:48.546Z,17.70
2018-06-11T02:38:17.199Z,17.70
2018-06-11T02:43:13.844Z,17.70
2018-06-11T02:45:42.673Z,17.60
2018-06-11T02:48:11.667Z,17.40
2018-06-11T02:50:40.100Z,17.40
2018-06-11T02:53:08.651Z,17.30
2018-06-11T02:55:37.118Z,17.40
2018-06-11T02:58:05.838Z,17.50
2018-06-11T03:00:34.328Z,17.50
2018-06-11T03:03:02.905Z,17.60
2018-06-11T03:05:31.352Z,17.50
2018-06-11T03:07:59.967Z,17.50
2018-06-11T03:10:28.405Z,17.50
2018-06-11T03:12:56.891Z,17.40
2018-06-11T03:15:25.455Z,17.40
2018-06-11T03:17:54.169Z,17.40
2018-06-11T03:20:22.601Z,17.50
2018-06-11T03:22:51.272Z,17.40
2018-06-11T03:25:19.768Z,17.40
2018-06-11T03:27:48.338Z,17.40
2018-06-11T03:30:16.785Z,17.30
2018-06-11T03:32:45.385Z,17.40
2018-06-11T03:35:13.836Z,17.50
2018-06-11T03:37:43.048Z,17.50
2018-06-11T03:40:11.889Z,17.60
2018-06-11T03:42:41.268Z,17.60
2018-06-11T03:45:09.769Z,17.50
2018-06-11T03:47:38.321Z,17.50
2018-06-11T03:50:06.842Z,17.40
2018-06-11T03:52:35.580Z,17.50
2018-06-11T03:55:04.386Z,17.50
2018-06-11T03:57:33.058Z,17.50
2018-06-11T04:02:29.905Z,17.40
2018-06-11T04:04:58.346Z,17.50
2018-06-11T04:07:26.884Z,17.50
2018-06-11T04:09:55.336Z,17.50
2018-06-11T04:12:23.796Z,17.60
2018-06-11T04:14:52.282Z,17.40
2018-06-11T04:17:21.077Z,17.40
2018-06-11T04:19:49.593Z,17.40
2018-06-11T04:22:18.100Z,17.40
2018-06-11T04:24:46.572Z,17.50
2018-06-11T04:27:15.256Z,17.50
2018-06-11T04:29:43.812Z,17.50
2018-06-11T04:32:13.476Z,17.50
2018-06-11T04:34:42.609Z,17.50
2018-06-11T04:37:12.094Z,17.50
2018-06-11T04:39:41.011Z,17.50
2018-06-11T04:42:09.719Z,17.60
2018-06-11T04:44:38.209Z,17.70
2018-06-11T04:47:06.934Z,17.70
2018-06-11T04:49:35.378Z,17.80
2018-06-11T04:52:03.939Z,17.80
2018-06-11T04:54:32.356Z,17.90
2018-06-11T04:57:00.927Z,17.90
2018-06-11T04:59:29.403Z,17.90
2018-06-11T05:01:57.872Z,17.90
2018-06-11T05:04:26.328Z,18.00
2018-06-11T05:06:54.926Z,18.00
2018-06-11T05:09:23.473Z,18.00
2018-06-11T05:11:52.122Z,18.10
2018-06-11T05:14:20.524Z,18.10
2018-06-11T05:16:49.072Z,18.10
2018-06-11T05:19:17.579Z,18.20
2018-06-11T05:21:46.357Z,18.20
2018-06-11T05:24:14.900Z,18.30
2018-06-11T05:26:44.316Z,18.30
2018-06-11T05:29:12.723Z,18.40
2018-06-11T05:31:41.310Z,18.50
2018-06-11T05:34:09.800Z,18.40
2018-06-11T05:36:38.354Z,18.50
2018-06-11T05:39:08.223Z,18.50
2018-06-11T05:41:37.392Z,18.50
2018-06-11T05:44:05.818Z,18.60
2018-06-11T05:46:34.316Z,18.70
2018-06-11T05:49:02.743Z,18.80
2018-06-11T05:51:31.278Z,18.70
2018-06-11T05:53:59.778Z,18.80
2018-06-11T05:56:28.484Z,18.80
2018-06-11T05:58:57.542Z,18.80
2018-06-11T06:01:27.007Z,19.00
2018-06-11T06:03:56.385Z,19.10
2018-06-11T06:06:26.070Z,19.10
2018-06-11T06:08:54.612Z,19.10
2018-06-11T06:11:23.053Z,19.20
2018-06-11T06:13:51.532Z,19.30
2018-06-11T06:16:20.082Z,19.20
2018-06-11T06:18:48.484Z,19.30
2018-06-11T06:21:18.046Z,19.40
2018-06-11T06:23:46.503Z,19.50
2018-06-11T06:26:15.000Z,19.50
2018-06-11T06:28:43.490Z,19.70
2018-06-11T06:31:11.924Z,19.80
2018-06-11T06:33:40.411Z,19.80
2018-06-11T06:36:08.987Z,20.00
2018-06-11T06:38:37.543Z,19.90
2018-06-11T06:41:06.106Z,20.10
2018-06-11T06:43:34.564Z,20.20
2018-06-11T06:46:03.166Z,20.20
2018-06-11T06:48:31.611Z,20.30
2018-06-11T06:51:00.221Z,20.30
2018-06-11T06:53:28.747Z,20.40
2018-06-11T06:55:58.052Z,20.50
2018-06-11T06:58:27.350Z,20.50
2018-06-11T07:00:57.736Z,20.50
2018-06-11T07:05:55.752Z,20.70
2018-06-11T07:08:24.325Z,20.70
2018-06-11T07:10:53.884Z,20.80
2018-06-11T07:13:22.299Z,20.80
2018-06-11T07:15:50.834Z,20.90
2018-06-11T07:18:19.327Z,21.00
2018-06-11T07:20:47.824Z,21.10
2018-06-11T07:23:16.251Z,21.10
2018-06-11T07:25:45.804Z,21.20
2018-06-11T07:30:42.509Z,21.30
2018-06-11T07:33:10.882Z,21.40
2018-06-11T07:35:39.357Z,21.40
2018-06-11T07:38:07.770Z,21.40
2018-06-11T07:40:36.220Z,21.50
2018-06-11T07:43:04.716Z,21.50
2018-06-11T07:45:33.214Z,21.50
2018-06-11T07:48:01.699Z,21.60
2018-06-11T07:50:31.240Z,21.70
2018-06-11T07:52:59.669Z,21.70
2018-06-11T07:55:28.144Z,21.80
2018-06-11T07:57:57.294Z,21.70
2018-06-11T08:00:26.895Z,21.60
2018-06-11T08:02:56.260Z,21.60
2018-06-11T08:05:24.887Z,21.60
2018-06-11T08:07:53.385Z,21.60
2018-06-11T08:10:21.894Z,21.80
2018-06-11T08:12:50.290Z,21.80
2018-06-11T08:17:46.985Z,22.00
2018-06-11T08:20:15.432Z,21.80
2018-06-11T08:25:46.770Z,21.90
2018-06-11T08:28:15.254Z,21.90
2018-06-11T08:33:11.930Z,21.80
2018-06-11T08:35:40.359Z,21.80
2018-06-11T08:38:08.862Z,21.90
2018-06-11T08:40:37.420Z,21.90
2018-06-11T08:43:05.925Z,22.10
2018-06-11T08:45:34.417Z,22.20
2018-06-11T08:48:02.838Z,22.20
2018-06-11T08:50:31.277Z,22.30
2018-06-11T08:52:59.856Z,22.30
2018-06-11T08:55:28.638Z,22.40
2018-06-11T08:57:57.223Z,22.30
2018-06-11T09:00:25.643Z,22.20
2018-06-11T09:02:54.942Z,22.10
2018-06-11T09:05:24.370Z,22.20
2018-06-11T09:07:53.127Z,22.30
2018-06-11T09:10:22.293Z,22.40
2018-06-11T09:12:50.859Z,22.20
2018-06-11T09:15:19.365Z,22.30
2018-06-11T09:17:47.848Z,22.30
2018-06-11T09:20:16.309Z,22.50
2018-06-11T09:22:44.839Z,22.50
2018-06-11T09:25:13.297Z,22.60
2018-06-11T09:27:41.912Z,22.50
2018-06-11T09:30:10.506Z,22.50
2018-06-11T09:32:39.041Z,22.50
2018-06-11T09:35:07.553Z,22.50
2018-06-11T09:37:36.065Z,22.50
2018-06-11T09:40:04.880Z,22.60
2018-06-11T09:42:33.370Z,22.60
2018-06-11T09:45:01.801Z,22.70
2018-06-11T09:47:30.406Z,22.90
2018-06-11T09:49:58.914Z,22.80
2018-06-11T09:52:27.408Z,22.90
2018-06-11T09:54:55.832Z,23.00
2018-06-11T09:57:24.781Z,23.00
2018-06-11T09:59:53.960Z,22.90
2018-06-11T10:02:23.092Z,23.00
2018-06-11T10:04:51.494Z,23.00
2018-06-11T10:07:20.090Z,23.00
2018-06-11T10:09:48.575Z,23.10
2018-06-11T10:12:17.221Z,23.10
2018-06-11T10:14:45.845Z,23.20
2018-06-11T10:17:14.367Z,23.40
2018-06-11T10:19:42.860Z,23.40
2018-06-11T10:22:11.327Z,23.40
2018-06-11T10:24:39.837Z,23.30
2018-06-11T10:27:08.331Z,23.30
2018-06-11T10:29:36.715Z,23.30
2018-06-11T10:32:06.247Z,23.30
2018-06-11T10:34:35.204Z,23.40
2018-06-11T10:37:04.153Z,23.50
2018-06-11T10:39:33.393Z,23.30
2018-06-11T10:42:01.900Z,23.30
2018-06-11T10:44:30.385Z,23.40
2018-06-11T10:46:58.874Z,23.60
2018-06-11T10:49:27.326Z,23.70
2018-06-11T10:51:55.911Z,23.90
2018-06-11T10:54:24.403Z,23.90
2018-06-11T10:56:52.927Z,24.00
2018-06-11T10:59:21.362Z,24.10
2018-06-11T11:01:50.192Z,24.20
2018-06-11T11:04:18.688Z,24.10
2018-06-11T11:06:47.152Z,24.00
2018-06-11T11:09:15.642Z,24.00
2018-06-11T11:11:44.217Z,24.10
2018-06-11T11:14:12.691Z,24.30
2018-06-11T11:16:41.313Z,24.40
2018-06-11T11:19:09.769Z,24.60
2018-06-11T11:24:06.476Z,24.70
2018-06-11T11:26:35.778Z,24.70
2018-06-11T11:29:04.241Z,24.70
2018-06-11T11:31:32.808Z,24.90
2018-06-11T11:34:01.748Z,24.90
2018-06-11T11:36:30.274Z,24.90
2018-06-11T11:38:58.736Z,24.90
2018-06-11T11:41:27.274Z,24.90
2018-06-11T11:43:55.730Z,24.80
2018-06-11T11:46:24.895Z,24.80
2018-06-11T11:48:53.710Z,24.60
2018-06-11T11:51:22.284Z,24.60
2018-06-11T11:53:50.706Z,24.80
2018-06-11T11:56:19.161Z,24.90
2018-06-11T11:58:47.637Z,24.80
2018-06-11T12:01:16.208Z,24.80
2018-06-11T12:03:44.625Z,24.70
2018-06-11T12:06:13.055Z,24.50
2018-06-11T12:08:41.545Z,24.70
2018-06-11T12:11:11.110Z,24.60
2018-06-11T12:13:39.556Z,24.60
2018-06-11T12:16:08.020Z,24.40
2018-06-11T12:18:36.524Z,24.30
2018-06-11T12:21:06.075Z,24.20
2018-06-11T12:23:34.484Z,24.10
2018-06-11T12:26:02.974Z,24.00
2018-06-11T12:28:31.420Z,24.00
2018-06-11T12:30:59.950Z,24.00
2018-06-11T12:33:28.412Z,24.00
2018-06-11T12:35:56.927Z,24.10
2018-06-11T12:38:26.077Z,24.20
2018-06-11T12:40:55.346Z,24.20
2018-06-11T12:43:23.856Z,24.30
2018-06-11T12:45:52.408Z,24.40
2018-06-11T12:48:20.873Z,24.50
2018-06-11T12:50:50.485Z,24.40
2018-06-11T12:53:18.942Z,24.40
2018-06-11T12:55:47.622Z,24.40
2018-06-11T12:59:19.256Z,24.30
2018-06-11T13:01:47.764Z,24.20
2018-06-11T13:04:16.313Z,24.10
2018-06-11T13:06:44.864Z,24.10
2018-06-11T13:09:13.390Z,24.10
2018-06-11T13:11:42.290Z,24.10
2018-06-11T13:14:10.666Z,24.20
2018-06-11T13:19:07.334Z,24.40
2018-06-11T13:21:35.928Z,24.50
2018-06-11T13:24:04.456Z,24.80
2018-06-11T14:48:31.161Z,24.80
2018-06-11T14:50:59.709Z,23.50
2018-06-11T14:53:28.144Z,23.40
2018-06-11T14:55:57.639Z,23.40
2018-06-11T14:58:26.400Z,23.40
2018-06-11T15:00:55.827Z,23.30
2018-06-11T15:03:24.814Z,23.30
2018-06-11T15:05:53.321Z,23.10
2018-06-11T15:08:21.826Z,23.10
2018-06-11T15:10:50.404Z,23.10
2018-06-11T15:13:18.849Z,22.90
2018-06-11T15:15:47.363Z,22.80
2018-06-11T15:18:16.037Z,22.70
2018-06-11T15:20:44.615Z,22.70
2018-06-11T15:23:13.140Z,22.60
2018-06-11T15:25:41.599Z,22.50
2018-06-11T15:28:10.156Z,22.40
2018-06-11T15:30:38.707Z,22.40
2018-06-11T15:33:07.932Z,22.30
2018-06-11T15:35:36.544Z,22.30
2018-06-11T15:38:05.038Z,22.30
2018-06-11T15:40:33.692Z,22.20
2018-06-11T15:43:02.249Z,22.30
2018-06-11T15:45:30.750Z,22.20
2018-06-11T15:47:59.203Z,22.20
2018-06-11T15:50:27.902Z,22.00
2018-06-11T15:52:56.871Z,22.10
2018-06-11T15:55:26.191Z,22.20
2018-06-11T15:57:54.933Z,22.20
2018-06-11T16:00:23.432Z,22.30
2018-06-11T16:02:51.921Z,22.20
2018-06-11T16:05:20.504Z,22.30
2018-06-11T16:07:49.122Z,22.10
2018-06-11T16:10:17.549Z,21.80
2018-06-11T16:12:46.358Z,21.80
2018-06-11T16:15:14.833Z,21.70
2018-06-11T16:17:43.283Z,21.70
2018-06-11T16:20:11.833Z,21.20
2018-06-11T16:22:40.516Z,20.70
2018-06-11T16:25:08.963Z,20.60
2018-06-11T16:27:37.432Z,20.50
2018-06-11T16:30:05.900Z,20.10
2018-06-11T16:32:34.360Z,20.50
2018-06-11T16:35:02.979Z,20.30
2018-06-11T16:37:31.448Z,20.00
2018-06-11T16:39:59.953Z,19.40
2018-06-11T16:42:28.505Z,19.70
2018-06-11T16:44:57.000Z,19.70
2018-06-11T16:47:26.350Z,19.90
2018-06-11T16:49:54.931Z,20.20
2018-06-11T16:52:23.389Z,20.30
2018-06-11T16:54:51.853Z,20.30
2018-06-11T16:57:20.384Z,20.10
2018-06-11T16:59:48.873Z,20.00
2018-06-11T17:02:17.348Z,19.90
2018-06-11T17:04:45.777Z,20.20
2018-06-11T17:07:14.437Z,20.20
2018-06-11T17:09:42.921Z,20.10
2018-06-11T17:12:11.326Z,20.00
2018-06-11T17:14:39.779Z,20.00
2018-06-11T17:17:08.472Z,20.00
2018-06-11T17:19:36.917Z,19.70
2018-06-11T17:22:05.443Z,19.50
2018-06-11T17:24:33.874Z,19.40
2018-06-11T17:27:02.409Z,19.40
2018-06-11T17:29:30.824Z,19.50
2018-06-11T17:31:59.320Z,19.70
2018-06-11T17:34:27.730Z,19.70
2018-06-11T17:36:56.704Z,19.50
2018-06-11T17:39:25.838Z,19.40
2018-06-11T17:41:54.822Z,19.40
2018-06-11T17:44:23.293Z,19.40
2018-06-11T17:46:51.813Z,19.30
2018-06-11T17:49:20.256Z,19.40
2018-06-11T17:51:48.768Z,19.40
2018-06-11T17:54:17.312Z,19.50
2018-06-11T17:56:45.998Z,19.00
2018-06-11T17:59:14.461Z,18.60
2018-06-11T18:01:42.986Z,19.00
2018-06-11T18:04:11.444Z,19.30
2018-06-11T18:06:40.066Z,19.20
2018-06-11T18:09:09.587Z,19.10
2018-06-11T18:11:38.207Z,18.60
2018-06-11T18:14:06.668Z,18.30
2018-06-11T18:16:35.129Z,18.40
2018-06-11T18:19:03.552Z,18.50
2018-06-11T18:21:32.097Z,18.70
2018-06-11T18:24:00.545Z,18.50
2018-06-11T18:26:28.986Z,18.70
2018-06-11T18:28:57.552Z,18.70
2018-06-11T18:31:26.603Z,18.80
2018-06-11T18:33:55.440Z,18.80
2018-06-11T18:36:24.134Z,18.80
2018-06-11T18:38:52.716Z,18.90
2018-06-11T18:41:21.146Z,18.90
2018-06-11T18:43:49.665Z,18.90
2018-06-11T18:48:46.356Z,19.00
2018-06-11T18:51:14.931Z,19.00
2018-06-11T18:53:43.375Z,19.00
2018-06-11T18:56:11.920Z,19.10
2018-06-11T18:58:40.453Z,19.10
2018-06-11T19:01:08.858Z,19.20
2018-06-11T19:03:37.382Z,19.20
2018-06-11T19:06:05.907Z,19.20
2018-06-11T19:08:34.396Z,19.10
2018-06-11T19:11:02.785Z,19.10
2018-06-11T19:13:31.289Z,19.00
2018-06-11T19:15:59.783Z,18.80
2018-06-11T19:18:28.260Z,18.80
2018-06-11T19:20:56.784Z,18.80
2018-06-11T19:23:26.019Z,18.80
2018-06-11T19:25:55.106Z,18.80
2018-06-11T19:28:24.369Z,18.80
2018-06-11T19:30:52.840Z,18.80
2018-06-11T19:33:21.362Z,18.90
2018-06-11T19:35:49.969Z,18.80
2018-06-11T19:38:18.505Z,18.80
2018-06-11T19:43:15.647Z,18.90
2018-06-11T19:45:44.090Z,19.00
2018-06-11T19:48:12.681Z,18.90
2018-06-11T19:50:41.301Z,18.80
2018-06-11T19:53:09.829Z,18.80
2018-06-11T19:55:38.299Z,18.80
2018-06-11T19:58:06.878Z,18.70
2018-06-11T20:00:35.389Z,18.70
2018-06-11T20:03:04.005Z,18.60
2018-06-11T20:05:32.388Z,18.70
2018-06-11T20:08:00.900Z,18.70
2018-06-11T20:10:29.342Z,18.60
2018-06-11T20:12:57.864Z,18.70
2018-06-11T20:15:26.963Z,18.60
2018-06-11T20:17:55.476Z,18.50
2018-06-11T20:20:24.197Z,18.50
2018-06-11T20:22:52.665Z,18.50
2018-06-11T20:25:21.217Z,18.70
2018-06-11T20:27:49.673Z,18.80
2018-06-11T20:30:18.202Z,18.80
2018-06-11T20:32:47.815Z,18.70
2018-06-11T20:35:16.269Z,18.60
2018-06-11T20:37:44.769Z,18.40
2018-06-11T20:40:13.227Z,18.40
2018-06-11T20:42:41.749Z,18.30
2018-06-11T20:45:11.310Z,18.50
2018-06-11T20:47:40.312Z,18.50
2018-06-11T20:50:09.599Z,18.60
2018-06-11T20:52:38.655Z,18.50
2018-06-11T20:55:07.170Z,18.60
2018-06-11T20:57:37.912Z,18.50
2018-06-11T21:00:06.409Z,18.50
2018-06-11T21:02:34.979Z,18.40
2018-06-11T21:05:03.446Z,18.30
2018-06-11T21:07:32.037Z,18.40
2018-06-11T21:10:00.579Z,18.40
2018-06-11T21:12:29.102Z,18.30
2018-06-11T21:14:57.596Z,18.30
2018-06-11T21:17:26.164Z,18.30
2018-06-11T21:19:54.587Z,18.20
2018-06-11T21:22:23.104Z,18.30
2018-06-11T21:24:51.539Z,18.40
2018-06-11T21:27:20.055Z,18.30
2018-06-11T21:29:48.487Z,18.40
2018-06-11T21:32:16.933Z,18.40
2018-06-11T21:34:45.441Z,18.30
2018-06-11T21:37:14.019Z,18.30
2018-06-11T21:39:42.422Z,18.30
2018-06-11T21:42:11.091Z,18.40
2018-06-11T21:44:40.583Z,18.50
2018-06-11T21:47:09.560Z,18.50
2018-06-11T21:52:06.978Z,18.60
2018-06-11T21:54:35.399Z,18.50
2018-06-11T21:57:03.839Z,18.60
2018-06-11T21:59:32.270Z,18.50
2018-06-11T22:02:00.885Z,18.40
2018-06-11T22:04:29.366Z,18.40
2018-06-11T22:06:57.863Z,18.40
2018-06-11T22:09:26.269Z,18.40
2018-06-11T22:11:54.711Z,18.50
2018-06-11T22:14:23.197Z,18.40
2018-06-11T22:16:51.753Z,18.40
2018-06-11T22:19:20.169Z,18.40
2018-06-11T22:21:48.686Z,18.30
2018-06-11T22:24:17.095Z,18.30
2018-06-11T22:26:45.707Z,18.40
2018-06-11T22:29:14.157Z,18.30
2018-06-11T22:31:42.672Z,18.20
2018-06-11T22:34:11.229Z,18.10
2018-06-11T22:36:40.472Z,18.10
2018-06-11T22:39:09.253Z,18.10
2018-06-11T22:41:38.401Z,18.20
2018-06-11T22:44:06.913Z,18.30
2018-06-11T22:46:35.378Z,18.30
2018-06-11T22:49:03.844Z,18.20
2018-06-11T22:51:32.377Z,18.10
2018-06-11T22:54:00.890Z,18.20
2018-06-11T22:56:29.381Z,18.20
2018-06-11T22:58:57.948Z,18.20
2018-06-11T23:01:26.480Z,18.30
2018-06-11T23:03:55.006Z,18.30
2018-06-11T23:06:23.707Z,18.30
2018-06-11T23:08:52.293Z,18.20
2018-06-11T23:11:20.880Z,18.30
2018-06-11T23:13:49.431Z,18.30
2018-06-11T23:16:17.909Z,18.20
2018-06-11T23:21:14.563Z,18.10
2018-06-11T23:23:43.037Z,18.10
2018-06-11T23:26:11.448Z,18.10
2018-06-11T23:28:40.301Z,18.10
2018-06-11T23:31:09.492Z,18.10
2018-06-11T23:33:38.777Z,18.10
2018-06-11T23:36:07.773Z,18.20
2018-06-11T23:38:36.248Z,18.10
2018-06-11T23:41:04.786Z,18.20
2018-06-11T23:43:33.233Z,18.20
2018-06-11T23:46:01.805Z,18.20
2018-06-11T23:48:30.268Z,18.10
2018-06-11T23:50:58.713Z,18.10
2018-06-11T23:53:27.175Z,18.00
2018-06-11T23:55:55.619Z,17.90
2018-06-11T23:58:24.073Z,18.00
